sensor_id;sensor_type;location;lat;lon;timestamp;P1;durP1;ratioP1;P2;durP2;ratioP2
77888;SDS011;67082;41.704;44.768;2024-02-14T00:01:10;23.25;;;4.72;;
77888;SDS011;67082;41.704;44.768;2024-02-14T00:03:39;18.30;;;5.05;;
77888;SDS011;67082;41.704;44.768;2024-02-14T00:06:08;17.15;;;5.03;;
77888;SDS011;67082;41.704;44.768;2024-02-14T00:08:36;21.67;;;5.18;;
77888;SDS011;67082;41.704;44.768;2024-02-14T00:11:06;16.17;;;5.20;;
77888;SDS011;67082;41.704;44.768;2024-02-14T00:13:34;16.33;;;4.95;;
77888;SDS011;67082;41.704;44.768;2024-02-14T00:16:02;16.02;;;4.57;;
77888;SDS011;67082;41.704;44.768;2024-02-14T00:18:31;23.63;;;4.65;;
77888;SDS011;67082;41.704;44.768;2024-02-14T00:21:00;16.83;;;4.70;;
77888;SDS011;67082;41.704;44.768;2024-02-14T00:23:30;28.02;;;4.93;;
77888;SDS011;67082;41.704;44.768;2024-02-14T00:25:59;14.98;;;4.68;;
77888;SDS011;67082;41.704;44.768;2024-02-14T00:28:27;21.55;;;5.15;;
77888;SDS011;67082;41.704;44.768;2024-02-14T00:30:56;18.52;;;4.90;;
77888;SDS011;67082;41.704;44.768;2024-02-14T00:33:42;13.10;;;4.57;;
77888;SDS011;67082;41.704;44.768;2024-02-14T00:36:12;17.75;;;5.22;;
77888;SDS011;67082;41.704;44.768;2024-02-14T00:38:40;24.95;;;5.07;;
77888;SDS011;67082;41.704;44.768;2024-02-14T00:41:10;26.67;;;5.00;;
77888;SDS011;67082;41.704;44.768;2024-02-14T00:43:39;28.75;;;5.15;;
77888;SDS011;67082;41.704;44.768;2024-02-14T00:46:07;21.02;;;4.95;;
77888;SDS011;67082;41.704;44.768;2024-02-14T00:48:35;23.90;;;5.45;;
77888;SDS011;67082;41.704;44.768;2024-02-14T00:51:04;22.25;;;5.25;;
77888;SDS011;67082;41.704;44.768;2024-02-14T00:53:33;20.45;;;5.38;;
77888;SDS011;67082;41.704;44.768;2024-02-14T00:56:01;16.90;;;4.78;;
77888;SDS011;67082;41.704;44.768;2024-02-14T00:58:30;22.08;;;5.00;;
77888;SDS011;67082;41.704;44.768;2024-02-14T01:00:59;18.58;;;5.50;;
77888;SDS011;67082;41.704;44.768;2024-02-14T01:03:27;21.00;;;5.38;;
77888;SDS011;67082;41.704;44.768;2024-02-14T01:05:56;19.92;;;6.47;;
77888;SDS011;67082;41.704;44.768;2024-02-14T01:08:24;27.30;;;6.05;;
77888;SDS011;67082;41.704;44.768;2024-02-14T01:10:52;20.23;;;5.93;;
77888;SDS011;67082;41.704;44.768;2024-02-14T01:13:21;22.23;;;5.70;;
77888;SDS011;67082;41.704;44.768;2024-02-14T01:15:50;23.50;;;5.82;;
77888;SDS011;67082;41.704;44.768;2024-02-14T01:18:18;21.45;;;6.20;;
77888;SDS011;67082;41.704;44.768;2024-02-14T01:20:46;20.95;;;5.93;;
77888;SDS011;67082;41.704;44.768;2024-02-14T01:23:14;18.45;;;5.35;;
77888;SDS011;67082;41.704;44.768;2024-02-14T01:25:50;18.63;;;5.47;;
77888;SDS011;67082;41.704;44.768;2024-02-14T01:28:18;25.60;;;5.38;;
77888;SDS011;67082;41.704;44.768;2024-02-14T01:30:47;20.25;;;4.72;;
77888;SDS011;67082;41.704;44.768;2024-02-14T01:33:15;18.70;;;4.05;;
77888;SDS011;67082;41.704;44.768;2024-02-14T01:35:44;16.05;;;4.10;;
77888;SDS011;67082;41.704;44.768;2024-02-14T01:38:13;17.25;;;4.97;;
77888;SDS011;67082;41.704;44.768;2024-02-14T01:40:44;22.02;;;4.60;;
77888;SDS011;67082;41.704;44.768;2024-02-14T01:43:13;18.38;;;4.55;;
77888;SDS011;67082;41.704;44.768;2024-02-14T01:45:42;19.10;;;4.25;;
77888;SDS011;67082;41.704;44.768;2024-02-14T01:48:23;13.20;;;4.45;;
77888;SDS011;67082;41.704;44.768;2024-02-14T01:50:52;19.45;;;4.25;;
77888;SDS011;67082;41.704;44.768;2024-02-14T01:53:20;22.58;;;4.50;;
77888;SDS011;67082;41.704;44.768;2024-02-14T01:55:49;20.08;;;4.50;;
77888;SDS011;67082;41.704;44.768;2024-02-14T01:58:17;17.42;;;4.50;;
77888;SDS011;67082;41.704;44.768;2024-02-14T02:00:46;17.83;;;5.00;;
77888;SDS011;67082;41.704;44.768;2024-02-14T02:03:16;24.85;;;5.55;;
77888;SDS011;67082;41.704;44.768;2024-02-14T02:05:45;22.17;;;4.60;;
77888;SDS011;67082;41.704;44.768;2024-02-14T02:08:14;17.50;;;4.68;;
77888;SDS011;67082;41.704;44.768;2024-02-14T02:10:42;21.45;;;4.35;;
77888;SDS011;67082;41.704;44.768;2024-02-14T02:13:30;19.42;;;4.80;;
77888;SDS011;67082;41.704;44.768;2024-02-14T02:16:18;18.83;;;6.50;;
77888;SDS011;67082;41.704;44.768;2024-02-14T02:19:07;26.88;;;7.78;;
77888;SDS011;67082;41.704;44.768;2024-02-14T02:21:57;15.70;;;6.95;;
77888;SDS011;67082;41.704;44.768;2024-02-14T02:24:27;21.48;;;7.22;;
77888;SDS011;67082;41.704;44.768;2024-02-14T02:26:56;19.25;;;6.60;;
77888;SDS011;67082;41.704;44.768;2024-02-14T02:29:44;21.48;;;7.57;;
77888;SDS011;67082;41.704;44.768;2024-02-14T02:32:14;20.23;;;7.32;;
77888;SDS011;67082;41.704;44.768;2024-02-14T02:34:44;18.20;;;6.88;;
77888;SDS011;67082;41.704;44.768;2024-02-14T02:37:13;19.17;;;7.57;;
77888;SDS011;67082;41.704;44.768;2024-02-14T02:40:10;22.50;;;7.45;;
77888;SDS011;67082;41.704;44.768;2024-02-14T02:43:00;20.38;;;7.65;;
77888;SDS011;67082;41.704;44.768;2024-02-14T02:45:48;21.65;;;7.15;;
77888;SDS011;67082;41.704;44.768;2024-02-14T02:48:36;15.57;;;6.45;;
77888;SDS011;67082;41.704;44.768;2024-02-14T02:51:17;17.65;;;6.85;;
77888;SDS011;67082;41.704;44.768;2024-02-14T02:54:08;19.40;;;8.65;;
77888;SDS011;67082;41.704;44.768;2024-02-14T02:56:58;19.35;;;8.02;;
77888;SDS011;67082;41.704;44.768;2024-02-14T02:59:27;15.13;;;7.50;;
77888;SDS011;67082;41.704;44.768;2024-02-14T03:01:57;15.25;;;7.60;;
77888;SDS011;67082;41.704;44.768;2024-02-14T03:04:48;18.02;;;7.00;;
77888;SDS011;67082;41.704;44.768;2024-02-14T03:07:39;20.35;;;8.27;;
77888;SDS011;67082;41.704;44.768;2024-02-14T03:10:28;19.38;;;8.07;;
77888;SDS011;67082;41.704;44.768;2024-02-14T03:13:17;22.95;;;8.00;;
77888;SDS011;67082;41.704;44.768;2024-02-14T03:16:22;18.50;;;8.40;;
77888;SDS011;67082;41.704;44.768;2024-02-14T03:18:52;19.25;;;8.27;;
77888;SDS011;67082;41.704;44.768;2024-02-14T03:21:22;23.83;;;8.45;;
77888;SDS011;67082;41.704;44.768;2024-02-14T03:23:50;21.02;;;8.43;;
77888;SDS011;67082;41.704;44.768;2024-02-14T03:26:22;22.15;;;7.43;;
77888;SDS011;67082;41.704;44.768;2024-02-14T03:28:51;16.48;;;7.90;;
77888;SDS011;67082;41.704;44.768;2024-02-14T03:31:21;18.88;;;7.97;;
77888;SDS011;67082;41.704;44.768;2024-02-14T03:33:49;20.42;;;7.35;;
77888;SDS011;67082;41.704;44.768;2024-02-14T03:36:18;18.23;;;7.70;;
77888;SDS011;67082;41.704;44.768;2024-02-14T03:38:46;16.88;;;7.75;;
77888;SDS011;67082;41.704;44.768;2024-02-14T03:41:15;16.40;;;8.23;;
77888;SDS011;67082;41.704;44.768;2024-02-14T03:43:45;19.35;;;8.10;;
77888;SDS011;67082;41.704;44.768;2024-02-14T03:49:06;22.63;;;9.05;;
77888;SDS011;67082;41.704;44.768;2024-02-14T03:51:35;23.45;;;9.15;;
77888;SDS011;67082;41.704;44.768;2024-02-14T03:54:03;16.77;;;8.45;;
77888;SDS011;67082;41.704;44.768;2024-02-14T03:56:31;18.83;;;8.98;;
77888;SDS011;67082;41.704;44.768;2024-02-14T03:59:00;22.92;;;8.48;;
77888;SDS011;67082;41.704;44.768;2024-02-14T04:01:28;19.67;;;7.80;;
77888;SDS011;67082;41.704;44.768;2024-02-14T04:03:59;17.92;;;8.20;;
77888;SDS011;67082;41.704;44.768;2024-02-14T04:06:28;25.67;;;9.20;;
77888;SDS011;67082;41.704;44.768;2024-02-14T04:08:59;18.27;;;8.00;;
77888;SDS011;67082;41.704;44.768;2024-02-14T04:11:28;16.60;;;8.45;;
77888;SDS011;67082;41.704;44.768;2024-02-14T04:13:56;29.73;;;8.77;;
77888;SDS011;67082;41.704;44.768;2024-02-14T04:16:25;22.88;;;7.97;;
77888;SDS011;67082;41.704;44.768;2024-02-14T04:18:59;20.83;;;9.93;;
77888;SDS011;67082;41.704;44.768;2024-02-14T04:21:28;22.45;;;9.10;;
77888;SDS011;67082;41.704;44.768;2024-02-14T04:23:56;23.88;;;8.65;;
77888;SDS011;67082;41.704;44.768;2024-02-14T04:26:25;17.88;;;8.38;;
77888;SDS011;67082;41.704;44.768;2024-02-14T04:28:54;24.70;;;8.43;;
77888;SDS011;67082;41.704;44.768;2024-02-14T04:31:22;19.38;;;8.35;;
77888;SDS011;67082;41.704;44.768;2024-02-14T04:34:02;21.77;;;7.82;;
77888;SDS011;67082;41.704;44.768;2024-02-14T04:36:30;18.80;;;7.88;;
77888;SDS011;67082;41.704;44.768;2024-02-14T04:39:00;27.75;;;8.25;;
77888;SDS011;67082;41.704;44.768;2024-02-14T04:41:30;20.33;;;8.00;;
77888;SDS011;67082;41.704;44.768;2024-02-14T04:44:01;24.13;;;8.27;;
77888;SDS011;67082;41.704;44.768;2024-02-14T04:46:32;18.98;;;7.70;;
77888;SDS011;67082;41.704;44.768;2024-02-14T04:49:01;22.85;;;8.48;;
77888;SDS011;67082;41.704;44.768;2024-02-14T04:51:33;28.73;;;8.90;;
77888;SDS011;67082;41.704;44.768;2024-02-14T04:54:02;19.73;;;7.78;;
77888;SDS011;67082;41.704;44.768;2024-02-14T04:56:30;18.50;;;7.47;;
77888;SDS011;67082;41.704;44.768;2024-02-14T04:58:59;18.55;;;6.93;;
77888;SDS011;67082;41.704;44.768;2024-02-14T05:01:27;20.48;;;7.15;;
77888;SDS011;67082;41.704;44.768;2024-02-14T05:03:55;20.67;;;7.32;;
77888;SDS011;67082;41.704;44.768;2024-02-14T05:06:24;23.90;;;8.85;;
77888;SDS011;67082;41.704;44.768;2024-02-14T05:08:53;24.63;;;9.43;;
77888;SDS011;67082;41.704;44.768;2024-02-14T05:11:21;27.40;;;9.95;;
77888;SDS011;67082;41.704;44.768;2024-02-14T05:13:50;22.40;;;9.18;;
77888;SDS011;67082;41.704;44.768;2024-02-14T05:16:19;18.40;;;7.40;;
77888;SDS011;67082;41.704;44.768;2024-02-14T05:18:47;19.73;;;8.07;;
77888;SDS011;67082;41.704;44.768;2024-02-14T05:21:19;36.05;;;9.90;;
77888;SDS011;67082;41.704;44.768;2024-02-14T05:23:47;24.23;;;11.10;;
77888;SDS011;67082;41.704;44.768;2024-02-14T05:26:16;32.08;;;11.38;;
77888;SDS011;67082;41.704;44.768;2024-02-14T05:28:44;32.17;;;11.35;;
77888;SDS011;67082;41.704;44.768;2024-02-14T05:31:13;25.20;;;10.48;;
77888;SDS011;67082;41.704;44.768;2024-02-14T05:33:43;26.33;;;10.73;;
77888;SDS011;67082;41.704;44.768;2024-02-14T05:36:12;29.33;;;11.27;;
77888;SDS011;67082;41.704;44.768;2024-02-14T05:38:40;35.40;;;12.85;;
77888;SDS011;67082;41.704;44.768;2024-02-14T05:41:08;37.38;;;13.07;;
77888;SDS011;67082;41.704;44.768;2024-02-14T05:43:36;34.92;;;13.95;;
77888;SDS011;67082;41.704;44.768;2024-02-14T05:46:06;43.65;;;12.73;;
77888;SDS011;67082;41.704;44.768;2024-02-14T05:48:38;35.58;;;13.90;;
77888;SDS011;67082;41.704;44.768;2024-02-14T05:51:09;47.20;;;14.45;;
77888;SDS011;67082;41.704;44.768;2024-02-14T05:53:37;35.08;;;14.50;;
77888;SDS011;67082;41.704;44.768;2024-02-14T05:56:06;35.40;;;14.32;;
77888;SDS011;67082;41.704;44.768;2024-02-14T05:58:34;46.03;;;14.60;;
77888;SDS011;67082;41.704;44.768;2024-02-14T06:01:04;39.33;;;13.95;;
77888;SDS011;67082;41.704;44.768;2024-02-14T06:03:33;34.30;;;14.05;;
77888;SDS011;67082;41.704;44.768;2024-02-14T06:06:02;32.88;;;13.95;;
77888;SDS011;67082;41.704;44.768;2024-02-14T06:08:30;34.42;;;14.65;;
77888;SDS011;67082;41.704;44.768;2024-02-14T06:10:59;39.78;;;15.43;;
77888;SDS011;67082;41.704;44.768;2024-02-14T06:13:27;36.42;;;15.65;;
77888;SDS011;67082;41.704;44.768;2024-02-14T06:15:56;46.20;;;17.23;;
77888;SDS011;67082;41.704;44.768;2024-02-14T06:18:24;46.20;;;17.88;;
77888;SDS011;67082;41.704;44.768;2024-02-14T06:20:52;40.72;;;14.93;;
77888;SDS011;67082;41.704;44.768;2024-02-14T06:23:20;36.35;;;14.43;;
77888;SDS011;67082;41.704;44.768;2024-02-14T06:25:49;32.63;;;13.82;;
77888;SDS011;67082;41.704;44.768;2024-02-14T06:28:16;27.20;;;13.85;;
77888;SDS011;67082;41.704;44.768;2024-02-14T06:30:45;35.70;;;14.98;;
77888;SDS011;67082;41.704;44.768;2024-02-14T06:33:13;43.13;;;16.10;;
77888;SDS011;67082;41.704;44.768;2024-02-14T06:35:42;39.55;;;16.58;;
77888;SDS011;67082;41.704;44.768;2024-02-14T06:38:10;47.25;;;15.82;;
77888;SDS011;67082;41.704;44.768;2024-02-14T06:40:38;39.35;;;16.10;;
77888;SDS011;67082;41.704;44.768;2024-02-14T06:43:08;36.85;;;16.52;;
77888;SDS011;67082;41.704;44.768;2024-02-14T06:45:39;42.28;;;16.58;;
77888;SDS011;67082;41.704;44.768;2024-02-14T06:48:27;37.05;;;16.42;;
77888;SDS011;67082;41.704;44.768;2024-02-14T06:50:56;39.25;;;17.85;;
77888;SDS011;67082;41.704;44.768;2024-02-14T06:53:25;38.60;;;17.13;;
77888;SDS011;67082;41.704;44.768;2024-02-14T06:55:53;48.70;;;19.05;;
77888;SDS011;67082;41.704;44.768;2024-02-14T06:58:21;40.65;;;17.23;;
77888;SDS011;67082;41.704;44.768;2024-02-14T07:00:50;37.63;;;16.77;;
77888;SDS011;67082;41.704;44.768;2024-02-14T07:03:18;40.85;;;17.83;;
77888;SDS011;67082;41.704;44.768;2024-02-14T07:05:46;37.85;;;16.75;;
77888;SDS011;67082;41.704;44.768;2024-02-14T07:08:14;46.15;;;17.90;;
77888;SDS011;67082;41.704;44.768;2024-02-14T07:10:43;47.65;;;17.83;;
77888;SDS011;67082;41.704;44.768;2024-02-14T07:13:11;46.70;;;18.33;;
77888;SDS011;67082;41.704;44.768;2024-02-14T07:15:39;46.42;;;19.55;;
77888;SDS011;67082;41.704;44.768;2024-02-14T07:18:07;45.33;;;18.52;;
77888;SDS011;67082;41.704;44.768;2024-02-14T07:20:38;45.28;;;19.73;;
77888;SDS011;67082;41.704;44.768;2024-02-14T07:23:06;45.10;;;18.45;;
77888;SDS011;67082;41.704;44.768;2024-02-14T07:25:34;46.80;;;19.80;;
77888;SDS011;67082;41.704;44.768;2024-02-14T07:28:02;48.58;;;18.80;;
77888;SDS011;67082;41.704;44.768;2024-02-14T07:30:31;45.50;;;19.95;;
77888;SDS011;67082;41.704;44.768;2024-02-14T07:32:59;47.58;;;19.38;;
77888;SDS011;67082;41.704;44.768;2024-02-14T07:35:28;50.53;;;20.52;;
77888;SDS011;67082;41.704;44.768;2024-02-14T07:37:58;47.15;;;19.58;;
77888;SDS011;67082;41.704;44.768;2024-02-14T07:40:26;45.17;;;19.35;;
77888;SDS011;67082;41.704;44.768;2024-02-14T07:43:15;50.42;;;19.35;;
77888;SDS011;67082;41.704;44.768;2024-02-14T07:45:43;45.30;;;19.83;;
77888;SDS011;67082;41.704;44.768;2024-02-14T07:48:11;43.55;;;19.33;;
77888;SDS011;67082;41.704;44.768;2024-02-14T07:50:40;48.97;;;18.13;;
77888;SDS011;67082;41.704;44.768;2024-02-14T07:53:08;44.30;;;17.63;;
77888;SDS011;67082;41.704;44.768;2024-02-14T07:55:37;50.42;;;19.10;;
77888;SDS011;67082;41.704;44.768;2024-02-14T07:58:06;41.15;;;17.45;;
77888;SDS011;67082;41.704;44.768;2024-02-14T08:00:35;45.83;;;18.65;;
77888;SDS011;67082;41.704;44.768;2024-02-14T08:03:03;38.08;;;17.83;;
77888;SDS011;67082;41.704;44.768;2024-02-14T08:05:34;43.58;;;18.77;;
77888;SDS011;67082;41.704;44.768;2024-02-14T08:08:02;37.42;;;15.98;;
77888;SDS011;67082;41.704;44.768;2024-02-14T08:10:30;43.80;;;16.63;;
77888;SDS011;67082;41.704;44.768;2024-02-14T08:12:58;45.17;;;15.90;;
77888;SDS011;67082;41.704;44.768;2024-02-14T08:15:27;39.28;;;15.70;;
77888;SDS011;67082;41.704;44.768;2024-02-14T08:17:55;36.17;;;15.32;;
77888;SDS011;67082;41.704;44.768;2024-02-14T08:20:32;41.63;;;16.77;;
77888;SDS011;67082;41.704;44.768;2024-02-14T08:23:16;40.78;;;16.02;;
77888;SDS011;67082;41.704;44.768;2024-02-14T08:25:45;47.67;;;16.38;;
77888;SDS011;67082;41.704;44.768;2024-02-14T08:28:14;37.97;;;15.00;;
77888;SDS011;67082;41.704;44.768;2024-02-14T08:30:43;35.00;;;15.07;;
77888;SDS011;67082;41.704;44.768;2024-02-14T08:33:11;39.33;;;17.13;;
77888;SDS011;67082;41.704;44.768;2024-02-14T08:35:41;41.55;;;16.58;;
77888;SDS011;67082;41.704;44.768;2024-02-14T08:38:10;43.58;;;17.13;;
77888;SDS011;67082;41.704;44.768;2024-02-14T08:40:39;42.17;;;16.05;;
77888;SDS011;67082;41.704;44.768;2024-02-14T08:43:07;37.97;;;17.33;;
77888;SDS011;67082;41.704;44.768;2024-02-14T08:45:37;40.28;;;16.95;;
77888;SDS011;67082;41.704;44.768;2024-02-14T08:48:06;43.75;;;17.80;;
77888;SDS011;67082;41.704;44.768;2024-02-14T08:50:35;50.00;;;20.08;;
77888;SDS011;67082;41.704;44.768;2024-02-14T08:53:03;43.20;;;18.20;;
77888;SDS011;67082;41.704;44.768;2024-02-14T08:55:32;48.25;;;17.95;;
77888;SDS011;67082;41.704;44.768;2024-02-14T08:58:00;46.67;;;17.83;;
77888;SDS011;67082;41.704;44.768;2024-02-14T09:00:29;54.38;;;18.73;;
77888;SDS011;67082;41.704;44.768;2024-02-14T09:02:58;44.13;;;18.52;;
77888;SDS011;67082;41.704;44.768;2024-02-14T09:05:28;44.50;;;17.20;;
77888;SDS011;67082;41.704;44.768;2024-02-14T09:07:58;38.53;;;16.77;;
77888;SDS011;67082;41.704;44.768;2024-02-14T09:10:28;36.78;;;17.27;;
77888;SDS011;67082;41.704;44.768;2024-02-14T09:12:56;35.95;;;16.77;;
77888;SDS011;67082;41.704;44.768;2024-02-14T09:15:24;36.47;;;17.08;;
77888;SDS011;67082;41.704;44.768;2024-02-14T09:17:53;41.65;;;16.33;;
77888;SDS011;67082;41.704;44.768;2024-02-14T09:20:23;31.35;;;16.38;;
77888;SDS011;67082;41.704;44.768;2024-02-14T09:22:51;42.13;;;17.02;;
77888;SDS011;67082;41.704;44.768;2024-02-14T09:25:21;37.60;;;16.58;;
77888;SDS011;67082;41.704;44.768;2024-02-14T09:27:51;33.15;;;14.65;;
77888;SDS011;67082;41.704;44.768;2024-02-14T09:30:20;34.92;;;13.68;;
77888;SDS011;67082;41.704;44.768;2024-02-14T09:33:07;40.90;;;14.05;;
77888;SDS011;67082;41.704;44.768;2024-02-14T09:35:38;39.13;;;15.38;;
77888;SDS011;67082;41.704;44.768;2024-02-14T09:38:12;36.08;;;15.18;;
77888;SDS011;67082;41.704;44.768;2024-02-14T09:40:42;46.20;;;16.73;;
77888;SDS011;67082;41.704;44.768;2024-02-14T09:45:52;38.80;;;15.23;;
77888;SDS011;67082;41.704;44.768;2024-02-14T09:48:22;30.77;;;14.90;;
77888;SDS011;67082;41.704;44.768;2024-02-14T09:50:51;33.65;;;15.15;;
77888;SDS011;67082;41.704;44.768;2024-02-14T09:53:21;39.08;;;14.98;;
77888;SDS011;67082;41.704;44.768;2024-02-14T09:55:51;35.92;;;15.75;;
77888;SDS011;67082;41.704;44.768;2024-02-14T09:58:22;39.53;;;15.07;;
77888;SDS011;67082;41.704;44.768;2024-02-14T10:00:51;31.25;;;13.50;;
77888;SDS011;67082;41.704;44.768;2024-02-14T10:06:09;38.60;;;14.85;;
77888;SDS011;67082;41.704;44.768;2024-02-14T10:08:37;32.55;;;14.50;;
77888;SDS011;67082;41.704;44.768;2024-02-14T10:11:22;28.35;;;13.70;;
77888;SDS011;67082;41.704;44.768;2024-02-14T10:13:50;42.90;;;14.35;;
77888;SDS011;67082;41.704;44.768;2024-02-14T10:16:21;37.30;;;15.40;;
77888;SDS011;67082;41.704;44.768;2024-02-14T10:18:52;38.03;;;15.00;;
77888;SDS011;67082;41.704;44.768;2024-02-14T10:21:21;32.53;;;14.50;;
77888;SDS011;67082;41.704;44.768;2024-02-14T10:23:50;35.78;;;13.55;;
77888;SDS011;67082;41.704;44.768;2024-02-14T10:26:20;30.17;;;13.57;;
77888;SDS011;67082;41.704;44.768;2024-02-14T10:28:50;30.75;;;12.68;;
77888;SDS011;67082;41.704;44.768;2024-02-14T10:31:19;29.65;;;12.10;;
77888;SDS011;67082;41.704;44.768;2024-02-14T10:33:48;25.55;;;12.15;;
77888;SDS011;67082;41.704;44.768;2024-02-14T10:36:17;30.05;;;11.60;;
77888;SDS011;67082;41.704;44.768;2024-02-14T10:38:45;28.55;;;11.10;;
77888;SDS011;67082;41.704;44.768;2024-02-14T10:41:17;26.35;;;11.00;;
77888;SDS011;67082;41.704;44.768;2024-02-14T10:43:46;31.48;;;11.43;;
77888;SDS011;67082;41.704;44.768;2024-02-14T10:46:23;34.38;;;11.18;;
77888;SDS011;67082;41.704;44.768;2024-02-14T10:48:58;27.58;;;11.23;;
77888;SDS011;67082;41.704;44.768;2024-02-14T10:51:34;30.60;;;12.13;;
77888;SDS011;67082;41.704;44.768;2024-02-14T10:54:05;27.00;;;11.68;;
77888;SDS011;67082;41.704;44.768;2024-02-14T10:56:39;32.05;;;11.32;;
77888;SDS011;67082;41.704;44.768;2024-02-14T10:59:13;25.20;;;11.52;;
77888;SDS011;67082;41.704;44.768;2024-02-14T11:01:46;31.52;;;11.30;;
77888;SDS011;67082;41.704;44.768;2024-02-14T11:04:15;27.52;;;12.27;;
77888;SDS011;67082;41.704;44.768;2024-02-14T11:06:45;31.85;;;11.65;;
77888;SDS011;67082;41.704;44.768;2024-02-14T11:09:21;36.10;;;12.10;;
77888;SDS011;67082;41.704;44.768;2024-02-14T11:11:58;37.08;;;11.90;;
77888;SDS011;67082;41.704;44.768;2024-02-14T11:14:31;33.20;;;12.27;;
77888;SDS011;67082;41.704;44.768;2024-02-14T11:17:01;30.98;;;11.52;;
77888;SDS011;67082;41.704;44.768;2024-02-14T11:19:36;28.60;;;11.00;;
77888;SDS011;67082;41.704;44.768;2024-02-14T11:22:12;33.38;;;11.57;;
77888;SDS011;67082;41.704;44.768;2024-02-14T11:24:45;28.30;;;11.55;;
77888;SDS011;67082;41.704;44.768;2024-02-14T11:27:17;28.88;;;12.10;;
77888;SDS011;67082;41.704;44.768;2024-02-14T11:30:01;29.85;;;11.35;;
77888;SDS011;67082;41.704;44.768;2024-02-14T11:32:32;36.88;;;12.77;;
77888;SDS011;67082;41.704;44.768;2024-02-14T11:35:00;34.47;;;12.55;;
77888;SDS011;67082;41.704;44.768;2024-02-14T11:37:30;39.03;;;12.38;;
77888;SDS011;67082;41.704;44.768;2024-02-14T11:39:59;29.90;;;11.52;;
77888;SDS011;67082;41.704;44.768;2024-02-14T11:42:31;25.83;;;11.45;;
77888;SDS011;67082;41.704;44.768;2024-02-14T11:44:59;29.02;;;11.45;;
77888;SDS011;67082;41.704;44.768;2024-02-14T11:47:31;28.45;;;11.98;;
77888;SDS011;67082;41.704;44.768;2024-02-14T11:49:59;35.08;;;11.15;;
77888;SDS011;67082;41.704;44.768;2024-02-14T11:52:30;23.88;;;10.18;;
77888;SDS011;67082;41.704;44.768;2024-02-14T11:54:58;30.13;;;10.85;;
77888;SDS011;67082;41.704;44.768;2024-02-14T11:57:28;22.92;;;9.90;;
77888;SDS011;67082;41.704;44.768;2024-02-14T11:59:57;23.08;;;10.18;;
77888;SDS011;67082;41.704;44.768;2024-02-14T12:02:25;26.30;;;9.93;;
77888;SDS011;67082;41.704;44.768;2024-02-14T12:04:54;30.08;;;10.23;;
77888;SDS011;67082;41.704;44.768;2024-02-14T12:07:24;22.98;;;10.13;;
77888;SDS011;67082;41.704;44.768;2024-02-14T12:09:54;20.90;;;10.30;;
77888;SDS011;67082;41.704;44.768;2024-02-14T12:12:23;28.38;;;9.80;;
77888;SDS011;67082;41.704;44.768;2024-02-14T12:14:52;27.27;;;9.95;;
77888;SDS011;67082;41.704;44.768;2024-02-14T12:17:21;25.73;;;10.27;;
77888;SDS011;67082;41.704;44.768;2024-02-14T12:19:52;27.25;;;9.95;;
77888;SDS011;67082;41.704;44.768;2024-02-14T12:22:21;28.08;;;10.68;;
77888;SDS011;67082;41.704;44.768;2024-02-14T12:24:49;27.73;;;9.75;;
77888;SDS011;67082;41.704;44.768;2024-02-14T12:27:20;31.80;;;9.90;;
77888;SDS011;67082;41.704;44.768;2024-02-14T12:29:48;26.38;;;9.80;;
77888;SDS011;67082;41.704;44.768;2024-02-14T12:32:19;28.23;;;10.20;;
77888;SDS011;67082;41.704;44.768;2024-02-14T12:34:47;29.80;;;9.90;;
77888;SDS011;67082;41.704;44.768;2024-02-14T12:37:16;27.63;;;9.43;;
77888;SDS011;67082;41.704;44.768;2024-02-14T12:39:45;33.58;;;8.90;;
77888;SDS011;67082;41.704;44.768;2024-02-14T12:42:14;20.50;;;8.85;;
77888;SDS011;67082;41.704;44.768;2024-02-14T12:44:42;22.92;;;8.93;;
77888;SDS011;67082;41.704;44.768;2024-02-14T12:47:11;25.08;;;9.93;;
77888;SDS011;67082;41.704;44.768;2024-02-14T12:49:39;25.67;;;9.00;;
77888;SDS011;67082;41.704;44.768;2024-02-14T12:52:07;51.00;;;25.35;;
77888;SDS011;67082;41.704;44.768;2024-02-14T12:54:36;20.13;;;9.50;;
77888;SDS011;67082;41.704;44.768;2024-02-14T12:57:04;19.92;;;8.27;;
77888;SDS011;67082;41.704;44.768;2024-02-14T12:59:34;21.95;;;8.63;;
77888;SDS011;67082;41.704;44.768;2024-02-14T13:02:03;19.58;;;8.35;;
77888;SDS011;67082;41.704;44.768;2024-02-14T13:04:34;22.17;;;7.07;;
77888;SDS011;67082;41.704;44.768;2024-02-14T13:07:02;16.65;;;6.93;;
77888;SDS011;67082;41.704;44.768;2024-02-14T13:09:31;21.83;;;6.55;;
77888;SDS011;67082;41.704;44.768;2024-02-14T13:11:59;23.38;;;8.23;;
77888;SDS011;67082;41.704;44.768;2024-02-14T13:14:27;12.65;;;5.70;;
77888;SDS011;67082;41.704;44.768;2024-02-14T13:16:59;17.38;;;7.88;;
77888;SDS011;67082;41.704;44.768;2024-02-14T13:19:27;30.05;;;7.72;;
77888;SDS011;67082;41.704;44.768;2024-02-14T13:21:57;29.77;;;7.82;;
77888;SDS011;67082;41.704;44.768;2024-02-14T13:24:25;39.60;;;7.40;;
77888;SDS011;67082;41.704;44.768;2024-02-14T13:26:54;21.30;;;7.07;;
77888;SDS011;67082;41.704;44.768;2024-02-14T13:29:22;12.40;;;5.88;;
77888;SDS011;67082;41.704;44.768;2024-02-14T13:31:50;22.65;;;7.10;;
77888;SDS011;67082;41.704;44.768;2024-02-14T13:34:18;23.48;;;7.15;;
77888;SDS011;67082;41.704;44.768;2024-02-14T13:36:48;25.35;;;6.80;;
77888;SDS011;67082;41.704;44.768;2024-02-14T13:39:17;14.32;;;6.47;;
77888;SDS011;67082;41.704;44.768;2024-02-14T13:41:45;18.83;;;6.57;;
77888;SDS011;67082;41.704;44.768;2024-02-14T13:44:15;21.90;;;6.60;;
77888;SDS011;67082;41.704;44.768;2024-02-14T13:46:44;16.55;;;5.95;;
77888;SDS011;67082;41.704;44.768;2024-02-14T13:49:13;13.55;;;5.60;;
77888;SDS011;67082;41.704;44.768;2024-02-14T13:51:46;14.02;;;6.80;;
77888;SDS011;67082;41.704;44.768;2024-02-14T13:54:24;10.88;;;4.70;;
77888;SDS011;67082;41.704;44.768;2024-02-14T13:56:52;17.90;;;10.25;;
77888;SDS011;67082;41.704;44.768;2024-02-14T13:59:22;20.90;;;10.00;;
77888;SDS011;67082;41.704;44.768;2024-02-14T14:01:51;24.65;;;12.57;;
77888;SDS011;67082;41.704;44.768;2024-02-14T14:04:19;17.58;;;5.47;;
77888;SDS011;67082;41.704;44.768;2024-02-14T14:06:49;11.00;;;5.20;;
77888;SDS011;67082;41.704;44.768;2024-02-14T14:09:17;16.65;;;5.00;;
77888;SDS011;67082;41.704;44.768;2024-02-14T14:11:46;10.60;;;4.70;;
77888;SDS011;67082;41.704;44.768;2024-02-14T14:14:17;10.60;;;4.60;;
77888;SDS011;67082;41.704;44.768;2024-02-14T14:16:47;24.02;;;5.55;;
77888;SDS011;67082;41.704;44.768;2024-02-14T14:19:16;16.90;;;4.90;;
77888;SDS011;67082;41.704;44.768;2024-02-14T14:21:45;16.23;;;4.10;;
77888;SDS011;67082;41.704;44.768;2024-02-14T14:24:13;12.85;;;4.70;;
77888;SDS011;67082;41.704;44.768;2024-02-14T14:26:42;13.27;;;4.85;;
77888;SDS011;67082;41.704;44.768;2024-02-14T14:29:11;8.43;;;4.88;;
77888;SDS011;67082;41.704;44.768;2024-02-14T14:31:39;9.38;;;4.80;;
77888;SDS011;67082;41.704;44.768;2024-02-14T14:34:07;16.63;;;5.32;;
77888;SDS011;67082;41.704;44.768;2024-02-14T14:36:36;11.13;;;5.15;;
77888;SDS011;67082;41.704;44.768;2024-02-14T14:39:05;14.55;;;6.75;;
77888;SDS011;67082;41.704;44.768;2024-02-14T14:41:34;18.20;;;6.97;;
77888;SDS011;67082;41.704;44.768;2024-02-14T14:44:03;18.60;;;7.35;;